sensor_id;sensor_type;location;lat;lon;timestamp;pressure;altitude;pressure_sealevel;temperature;humidity
14273;BME280;7220;49.450;11.052;2023-03-13T00:03:40;97685.81;;;8.66;92.19
14273;BME280;7220;49.450;11.052;2023-03-13T00:07:40;97679.09;;;8.77;92.13
14273;BME280;7220;49.450;11.052;2023-03-13T00:11:42;97672.75;;;8.79;91.13
14273;BME280;7220;49.450;11.052;2023-03-13T00:15:42;97645.44;;;8.79;90.35
14273;BME280;7220;49.450;11.052;2023-03-13T00:19:42;97645.78;;;8.73;90.76
14273;BME280;7220;49.450;11.052;2023-03-13T00:23:43;97647.09;;;8.64;91.57
14273;BME280;7220;49.450;11.052;2023-03-13T00:27:43;97646.44;;;8.60;91.70
14273;BME280;7220;49.450;11.052;2023-03-13T00:31:44;97640.34;;;8.58;90.91
14273;BME280;7220;49.450;11.052;2023-03-13T00:35:44;97638.66;;;8.57;91.78
14273;BME280;7220;49.450;11.052;2023-03-13T00:39:44;97632.59;;;8.55;91.13
14273;BME280;7220;49.450;11.052;2023-03-13T00:43:46;97645.50;;;8.61;91.13
14273;BME280;7220;49.450;11.052;2023-03-13T00:47:46;97643.19;;;8.55;91.46
14273;BME280;7220;49.450;11.052;2023-03-13T00:51:49;97637.53;;;8.61;89.95
14273;BME280;7220;49.450;11.052;2023-03-13T00:55:58;97656.25;;;8.58;90.19
14273;BME280;7220;49.450;11.052;2023-03-13T00:59:59;97640.97;;;8.63;90.00
14273;BME280;7220;49.450;11.052;2023-03-13T01:04:01;97637.69;;;8.58;89.77
14273;BME280;7220;49.450;11.052;2023-03-13T01:08:02;97628.13;;;8.56;89.37
14273;BME280;7220;49.450;11.052;2023-03-13T01:12:03;97623.72;;;8.56;89.34
14273;BME280;7220;49.450;11.052;2023-03-13T01:16:10;97609.69;;;8.54;89.24
14273;BME280;7220;49.450;11.052;2023-03-13T01:20:12;97623.53;;;8.59;88.54
14273;BME280;7220;49.450;11.052;2023-03-13T01:24:12;97608.91;;;8.52;88.71
14273;BME280;7220;49.450;11.052;2023-03-13T01:28:13;97616.00;;;8.51;88.66
14273;BME280;7220;49.450;11.052;2023-03-13T01:32:13;97604.38;;;8.54;88.36
14273;BME280;7220;49.450;11.052;2023-03-13T01:36:14;97596.69;;;8.49;88.63
14273;BME280;7220;49.450;11.052;2023-03-13T01:40:14;97598.56;;;8.47;88.47
14273;BME280;7220;49.450;11.052;2023-03-13T01:44:26;97590.31;;;8.20;89.98
14273;BME280;7220;49.450;11.052;2023-03-13T01:48:39;97584.16;;;8.19;90.16
14273;BME280;7220;49.450;11.052;2023-03-13T01:52:40;97589.66;;;8.32;89.87
14273;BME280;7220;49.450;11.052;2023-03-13T01:56:48;97577.78;;;8.40;89.61
14273;BME280;7220;49.450;11.052;2023-03-13T02:00:50;97583.75;;;8.27;90.84
14273;BME280;7220;49.450;11.052;2023-03-13T02:04:57;97567.00;;;8.27;90.96
14273;BME280;7220;49.450;11.052;2023-03-13T02:09:03;97567.44;;;8.35;90.10
14273;BME280;7220;49.450;11.052;2023-03-13T02:13:05;97559.41;;;8.36;90.10
14273;BME280;7220;49.450;11.052;2023-03-13T02:17:06;97545.09;;;8.41;89.55
14273;BME280;7220;49.450;11.052;2023-03-13T02:21:13;97546.69;;;8.27;91.31
14273;BME280;7220;49.450;11.052;2023-03-13T02:29:15;97534.31;;;8.44;90.00
14273;BME280;7220;49.450;11.052;2023-03-13T02:33:18;97539.69;;;8.58;89.51
14273;BME280;7220;49.450;11.052;2023-03-13T02:37:20;97541.94;;;8.50;89.73
14273;BME280;7220;49.450;11.052;2023-03-13T02:41:21;97525.31;;;8.46;90.59
14273;BME280;7220;49.450;11.052;2023-03-13T02:45:22;97515.03;;;8.58;89.93
14273;BME280;7220;49.450;11.052;2023-03-13T02:49:27;97516.75;;;8.59;89.92
14273;BME280;7220;49.450;11.052;2023-03-13T02:53:28;97513.91;;;8.46;90.93
14273;BME280;7220;49.450;11.052;2023-03-13T02:57:29;97499.97;;;8.42;90.80
14273;BME280;7220;49.450;11.052;2023-03-13T03:01:30;97481.22;;;8.47;91.06
14273;BME280;7220;49.450;11.052;2023-03-13T03:05:31;97501.75;;;8.42;92.08
14273;BME280;7220;49.450;11.052;2023-03-13T03:09:32;97495.34;;;8.30;93.33
14273;BME280;7220;49.450;11.052;2023-03-13T03:13:32;97494.16;;;8.35;93.74
14273;BME280;7220;49.450;11.052;2023-03-13T03:17:33;97502.72;;;8.57;91.75
14273;BME280;7220;49.450;11.052;2023-03-13T03:21:33;97493.91;;;8.40;93.76
14273;BME280;7220;49.450;11.052;2023-03-13T03:25:34;97485.13;;;8.40;93.77
14273;BME280;7220;49.450;11.052;2023-03-13T03:29:34;97483.22;;;8.42;94.67
14273;BME280;7220;49.450;11.052;2023-03-13T03:33:36;97476.91;;;8.28;95.26
14273;BME280;7220;49.450;11.052;2023-03-13T03:37:36;97479.81;;;8.24;95.90
14273;BME280;7220;49.450;11.052;2023-03-13T03:41:36;97489.56;;;8.23;96.90
14273;BME280;7220;49.450;11.052;2023-03-13T03:45:37;97479.16;;;8.36;96.70
14273;BME280;7220;49.450;11.052;2023-03-13T03:49:37;97480.16;;;8.33;96.62
14273;BME280;7220;49.450;11.052;2023-03-13T03:53:38;97467.69;;;8.35;97.01
14273;BME280;7220;49.450;11.052;2023-03-13T03:57:38;97466.16;;;8.31;97.37
14273;BME280;7220;49.450;11.052;2023-03-13T04:01:38;97454.44;;;8.35;97.49
14273;BME280;7220;49.450;11.052;2023-03-13T04:05:39;97450.44;;;8.28;98.61
14273;BME280;7220;49.450;11.052;2023-03-13T04:09:40;97442.91;;;8.36;98.13
14273;BME280;7220;49.450;11.052;2023-03-13T04:13:40;97428.06;;;8.50;97.11
14273;BME280;7220;49.450;11.052;2023-03-13T04:17:40;97425.75;;;8.44;97.19
14273;BME280;7220;49.450;11.052;2023-03-13T04:21:40;97405.19;;;8.49;97.88
14273;BME280;7220;49.450;11.052;2023-03-13T04:25:41;97403.28;;;8.51;97.40
14273;BME280;7220;49.450;11.052;2023-03-13T04:29:41;97395.34;;;8.51;96.93
14273;BME280;7220;49.450;11.052;2023-03-13T04:33:41;97404.91;;;8.53;96.44
14273;BME280;7220;49.450;11.052;2023-03-13T04:37:42;97383.66;;;8.55;96.53
14273;BME280;7220;49.450;11.052;2023-03-13T04:41:42;97381.41;;;8.63;95.94
14273;BME280;7220;49.450;11.052;2023-03-13T04:45:43;97392.31;;;8.73;95.21
14273;BME280;7220;49.450;11.052;2023-03-13T04:49:43;97379.72;;;8.77;94.78
14273;BME280;7220;49.450;11.052;2023-03-13T04:53:43;97372.72;;;8.90;94.49
14273;BME280;7220;49.450;11.052;2023-03-13T04:57:43;97380.66;;;8.76;95.08
14273;BME280;7220;49.450;11.052;2023-03-13T05:01:44;97364.19;;;8.71;95.61
14273;BME280;7220;49.450;11.052;2023-03-13T05:05:44;97383.53;;;8.87;95.16
14273;BME280;7220;49.450;11.052;2023-03-13T05:09:44;97385.03;;;8.77;95.38
14273;BME280;7220;49.450;11.052;2023-03-13T05:13:45;97377.63;;;8.67;96.65
14273;BME280;7220;49.450;11.052;2023-03-13T05:17:45;97373.22;;;8.52;98.83
14273;BME280;7220;49.450;11.052;2023-03-13T05:21:45;97365.19;;;8.53;99.58
14273;BME280;7220;49.450;11.052;2023-03-13T05:25:46;97376.28;;;8.60;100.00
14273;BME280;7220;49.450;11.052;2023-03-13T05:29:46;97353.91;;;8.50;100.00
14273;BME280;7220;49.450;11.052;2023-03-13T05:33:46;97351.88;;;8.55;100.00
14273;BME280;7220;49.450;11.052;2023-03-13T05:37:47;97355.56;;;8.52;100.00
14273;BME280;7220;49.450;11.052;2023-03-13T05:41:47;97342.50;;;8.64;100.00
14273;BME280;7220;49.450;11.052;2023-03-13T05:45:47;97340.53;;;8.67;100.00
14273;BME280;7220;49.450;11.052;2023-03-13T05:49:48;97343.81;;;8.57;100.00
14273;BME280;7220;49.450;11.052;2023-03-13T05:53:48;97328.81;;;8.57;100.00
14273;BME280;7220;49.450;11.052;2023-03-13T05:57:48;97327.78;;;8.44;100.00
14273;BME280;7220;49.450;11.052;2023-03-13T06:01:49;97330.81;;;8.68;100.00
14273;BME280;7220;49.450;11.052;2023-03-13T06:05:56;97306.19;;;8.51;100.00
14273;BME280;7220;49.450;11.052;2023-03-13T06:09:57;97307.47;;;8.44;100.00
14273;BME280;7220;49.450;11.052;2023-03-13T06:13:57;97310.47;;;8.68;100.00
14273;BME280;7220;49.450;11.052;2023-03-13T06:17:58;97307.22;;;8.49;100.00
14273;BME280;7220;49.450;11.052;2023-03-13T06:21:58;97299.47;;;8.75;100.00
14273;BME280;7220;49.450;11.052;2023-03-13T06:25:59;97312.53;;;8.63;100.00
14273;BME280;7220;49.450;11.052;2023-03-13T06:29:59;97310.75;;;8.78;100.00
14273;BME280;7220;49.450;11.052;2023-03-13T06:33:59;97305.00;;;9.00;100.00
14273;BME280;7220;49.450;11.052;2023-03-13T06:38:00;97300.06;;;8.94;100.00
14273;BME280;7220;49.450;11.052;2023-03-13T06:42:01;97306.97;;;8.82;100.00
14273;BME280;7220;49.450;11.052;2023-03-13T06:46:03;97300.25;;;8.91;100.00
14273;BME280;7220;49.450;11.052;2023-03-13T06:50:04;97294.94;;;8.77;100.00
14273;BME280;7220;49.450;11.052;2023-03-13T06:54:05;97296.09;;;8.73;100.00
14273;BME280;7220;49.450;11.052;2023-03-13T06:58:05;97289.28;;;8.83;100.00
14273;BME280;7220;49.450;11.052;2023-03-13T07:02:05;97295.34;;;8.85;100.00
14273;BME280;7220;49.450;11.052;2023-03-13T07:06:06;97286.06;;;8.92;100.00
14273;BME280;7220;49.450;11.052;2023-03-13T07:10:08;97286.53;;;8.99;100.00
14273;BME280;7220;49.450;11.052;2023-03-13T07:14:09;97279.91;;;9.06;100.00
14273;BME280;7220;49.450;11.052;2023-03-13T07:18:10;97278.66;;;8.97;100.00
14273;BME280;7220;49.450;11.052;2023-03-13T07:22:10;97282.47;;;8.93;100.00
14273;BME280;7220;49.450;11.052;2023-03-13T07:26:13;97283.03;;;8.98;100.00
14273;BME280;7220;49.450;11.052;2023-03-13T07:30:14;97293.81;;;9.10;100.00
14273;BME280;7220;49.450;11.052;2023-03-13T07:34:14;97287.09;;;9.19;100.00
14273;BME280;7220;49.450;11.052;2023-03-13T07:38:15;97277.53;;;9.16;100.00
14273;BME280;7220;49.450;11.052;2023-03-13T07:42:15;97284.03;;;9.39;100.00
14273;BME280;7220;49.450;11.052;2023-03-13T07:46:17;97287.88;;;9.48;100.00
14273;BME280;7220;49.450;11.052;2023-03-13T07:50:18;97278.59;;;9.55;100.00
14273;BME280;7220;49.450;11.052;2023-03-13T07:54:19;97276.09;;;9.67;100.00
14273;BME280;7220;49.450;11.052;2023-03-13T07:58:19;97263.72;;;9.80;100.00
14273;BME280;7220;49.450;11.052;2023-03-13T08:02:19;97264.56;;;10.08;100.00
14273;BME280;7220;49.450;11.052;2023-03-13T08:06:22;97249.28;;;10.12;100.00
14273;BME280;7220;49.450;11.052;2023-03-13T08:10:22;97246.56;;;10.26;100.00
14273;BME280;7220;49.450;11.052;2023-03-13T08:14:23;97241.22;;;10.13;100.00
14273;BME280;7220;49.450;11.052;2023-03-13T08:18:23;97251.41;;;10.19;100.00
14273;BME280;7220;49.450;11.052;2023-03-13T08:22:23;97264.25;;;10.40;100.00
14273;BME280;7220;49.450;11.052;2023-03-13T08:26:27;97251.28;;;10.48;99.87
14273;BME280;7220;49.450;11.052;2023-03-13T08:30:27;97250.75;;;10.69;98.83
14273;BME280;7220;49.450;11.052;2023-03-13T08:34:28;97246.72;;;10.63;100.00
14273;BME280;7220;49.450;11.052;2023-03-13T08:38:28;97254.88;;;10.86;98.05
14273;BME280;7220;49.450;11.052;2023-03-13T08:42:28;97246.25;;;10.95;98.02
14273;BME280;7220;49.450;11.052;2023-03-13T08:46:30;97240.75;;;10.98;98.05
14273;BME280;7220;49.450;11.052;2023-03-13T08:50:31;97234.53;;;11.11;98.19
14273;BME280;7220;49.450;11.052;2023-03-13T08:54:32;97232.16;;;11.32;97.51
14273;BME280;7220;49.450;11.052;2023-03-13T08:58:32;97220.84;;;11.41;97.19
14273;BME280;7220;49.450;11.052;2023-03-13T09:02:33;97237.09;;;11.49;97.03
14273;BME280;7220;49.450;11.052;2023-03-13T09:06:35;97235.06;;;11.53;97.22
14273;BME280;7220;49.450;11.052;2023-03-13T09:10:35;97223.00;;;11.84;96.08
14273;BME280;7220;49.450;11.052;2023-03-13T09:14:36;97221.91;;;12.11;95.37
14273;BME280;7220;49.450;11.052;2023-03-13T09:18:37;97217.75;;;12.31;95.00
14273;BME280;7220;49.450;11.052;2023-03-13T09:22:37;97206.50;;;12.39;94.82
14273;BME280;7220;49.450;11.052;2023-03-13T09:26:38;97200.22;;;12.52;94.98
14273;BME280;7220;49.450;11.052;2023-03-13T09:30:38;97217.94;;;12.64;95.35
14273;BME280;7220;49.450;11.052;2023-03-13T09:34:38;97202.78;;;12.87;93.66
14273;BME280;7220;49.450;11.052;2023-03-13T09:38:39;97194.88;;;13.08;93.11
14273;BME280;7220;49.450;11.052;2023-03-13T09:42:54;97188.09;;;13.16;92.42
14273;BME280;7220;49.450;11.052;2023-03-13T09:47:05;97190.75;;;13.27;91.98
14273;BME280;7220;49.450;11.052;2023-03-13T09:51:21;97196.44;;;13.34;90.73
14273;BME280;7220;49.450;11.052;2023-03-13T09:55:26;97180.47;;;13.66;90.83
14273;BME280;7220;49.450;11.052;2023-03-13T09:59:50;97184.22;;;13.96;88.19
14273;BME280;7220;49.450;11.052;2023-03-13T10:08:17;97188.47;;;13.78;88.62
14273;BME280;7220;49.450;11.052;2023-03-13T10:12:20;97195.00;;;13.73;88.68
14273;BME280;7220;49.450;11.052;2023-03-13T10:20:28;97193.28;;;13.84;87.84
14273;BME280;7220;49.450;11.052;2023-03-13T10:24:34;97189.16;;;13.80;87.62
14273;BME280;7220;49.450;11.052;2023-03-13T10:28:36;97192.97;;;13.98;85.98
14273;BME280;7220;49.450;11.052;2023-03-13T10:32:37;97200.63;;;13.92;86.87
14273;BME280;7220;49.450;11.052;2023-03-13T10:37:03;97201.97;;;13.97;86.42
14273;BME280;7220;49.450;11.052;2023-03-13T10:41:15;97210.41;;;13.81;87.11
14273;BME280;7220;49.450;11.052;2023-03-13T10:45:20;97201.53;;;13.81;87.81
14273;BME280;7220;49.450;11.052;2023-03-13T10:49:23;97209.34;;;13.72;87.61
14273;BME280;7220;49.450;11.052;2023-03-13T10:57:31;97188.66;;;13.86;86.19
14273;BME280;7220;49.450;11.052;2023-03-13T11:01:42;97199.47;;;13.84;86.04
14273;BME280;7220;49.450;11.052;2023-03-13T11:05:53;97209.25;;;13.95;85.45
14273;BME280;7220;49.450;11.052;2023-03-13T11:14:21;97184.91;;;14.10;84.48
14273;BME280;7220;49.450;11.052;2023-03-13T11:31:35;97137.34;;;14.87;80.37
14273;BME280;7220;49.450;11.052;2023-03-13T11:39:59;97137.50;;;14.85;79.17
14273;BME280;7220;49.450;11.052;2023-03-13T11:44:18;97136.69;;;14.94;78.48
14273;BME280;7220;49.450;11.052;2023-03-13T11:53:18;97150.72;;;14.34;80.44
14273;BME280;7220;49.450;11.052;2023-03-13T11:57:49;97159.19;;;14.30;81.02
14273;BME280;7220;49.450;11.052;2023-03-13T12:01:56;97158.28;;;14.50;79.45
14273;BME280;7220;49.450;11.052;2023-03-13T12:05:59;97152.94;;;14.50;79.44
14273;BME280;7220;49.450;11.052;2023-03-13T12:10:04;97141.84;;;14.55;79.24
14273;BME280;7220;49.450;11.052;2023-03-13T12:14:29;97138.69;;;14.71;78.17
14273;BME280;7220;49.450;11.052;2023-03-13T12:18:35;97127.34;;;14.79;77.50
14273;BME280;7220;49.450;11.052;2023-03-13T12:22:45;97107.16;;;15.16;75.84
14273;BME280;7220;49.450;11.052;2023-03-13T12:27:55;97108.31;;;15.33;74.90
14273;BME280;7220;49.450;11.052;2023-03-13T12:31:38;97090.69;;;15.40;73.91
14273;BME280;7220;49.450;11.052;2023-03-13T12:35:44;97074.97;;;16.33;70.99
14273;BME280;7220;49.450;11.052;2023-03-13T12:39:49;97049.22;;;17.60;67.57
14273;BME280;7220;49.450;11.052;2023-03-13T12:43:53;97061.56;;;18.42;62.90
14273;BME280;7220;49.450;11.052;2023-03-13T13:00:45;96990.06;;;20.79;52.81
14273;BME280;7220;49.450;11.052;2023-03-13T13:04:48;96997.06;;;20.09;53.31
14273;BME280;7220;49.450;11.052;2023-03-13T13:21:30;96956.66;;;19.76;53.62
14273;BME280;7220;49.450;11.052;2023-03-13T13:25:33;96938.06;;;20.54;52.63
14273;BME280;7220;49.450;11.052;2023-03-13T13:33:35;96920.50;;;20.89;49.85
14273;BME280;7220;49.450;11.052;2023-03-13T13:37:38;96921.81;;;20.93;49.98
14273;BME280;7220;49.450;11.052;2023-03-13T13:41:39;96906.09;;;21.35;49.60
14273;BME280;7220;49.450;11.052;2023-03-13T13:46:00;96899.13;;;21.41;48.85
14273;BME280;7220;49.450;11.052;2023-03-13T13:50:01;96901.72;;;21.57;48.00
14273;BME280;7220;49.450;11.052;2023-03-13T13:58:21;96886.72;;;22.00;46.52
14273;BME280;7220;49.450;11.052;2023-03-13T14:02:25;96863.44;;;22.35;46.19
14273;BME280;7220;49.450;11.052;2023-03-13T14:06:33;96850.94;;;21.68;47.10
14273;BME280;7220;49.450;11.052;2023-03-13T14:10:36;96857.34;;;21.67;47.42
14273;BME280;7220;49.450;11.052;2023-03-13T14:14:37;96840.00;;;21.08;48.98
14273;BME280;7220;49.450;11.052;2023-03-13T14:18:40;96837.03;;;20.71;49.43
14273;BME280;7220;49.450;11.052;2023-03-13T14:22:45;96827.84;;;20.11;51.32
14273;BME280;7220;49.450;11.052;2023-03-13T14:26:46;96823.63;;;19.60;51.92
14273;BME280;7220;49.450;11.052;2023-03-13T14:30:47;96814.25;;;19.31;53.36
14273;BME280;7220;49.450;11.052;2023-03-13T14:34:48;96810.44;;;19.09;54.36
14273;BME280;7220;49.450;11.052;2023-03-13T14:38:53;96789.44;;;18.96;54.41
14273;BME280;7220;49.450;11.052;2023-03-13T14:42:59;96801.19;;;18.87;55.30
14273;BME280;7220;49.450;11.052;2023-03-13T14:51:22;96764.56;;;19.50;54.41
14273;BME280;7220;49.450;11.052;2023-03-13T14:55:27;96754.41;;;20.00;52.93
14273;BME280;7220;49.450;11.052;2023-03-13T14:59:27;96748.63;;;21.11;50.39
14273;BME280;7220;49.450;11.052;2023-03-13T15:03:29;96751.34;;;21.71;48.62
14273;BME280;7220;49.450;11.052;2023-03-13T15:07:39;96738.66;;;21.72;48.49
14273;BME280;7220;49.450;11.052;2023-03-13T15:11:42;96719.00;;;21.78;47.87
14273;BME280;7220;49.450;11.052;2023-03-13T15:15:51;96704.59;;;22.36;46.77
14273;BME280;7220;49.450;11.052;2023-03-13T15:19:57;96687.88;;;22.26;46.17
14273;BME280;7220;49.450;11.052;2023-03-13T15:24:12;96671.84;;;21.66;47.37
14273;BME280;7220;49.450;11.052;2023-03-13T15:28:18;96657.00;;;21.25;48.45
14273;BME280;7220;49.450;11.052;2023-03-13T15:32:25;96654.84;;;21.05;48.78
14273;BME280;7220;49.450;11.052;2023-03-13T15:36:27;96646.00;;;20.96;49.04
14273;BME280;7220;49.450;11.052;2023-03-13T15:40:28;96637.06;;;20.81;49.26
14273;BME280;7220;49.450;11.052;2023-03-13T15:44:30;96631.59;;;20.51;50.39
14273;BME280;7220;49.450;11.052;2023-03-13T15:48:30;96612.34;;;20.54;49.79
14273;BME280;7220;49.450;11.052;2023-03-13T15:52:31;96611.34;;;20.55;50.33
14273;BME280;7220;49.450;11.052;2023-03-13T15:56:35;96593.22;;;20.11;51.00
14273;BME280;7220;49.450;11.052;2023-03-13T16:00:35;96590.13;;;19.99;51.24
14273;BME280;7220;49.450;11.052;2023-03-13T16:04:36;96572.91;;;20.00;51.28
14273;BME280;7220;49.450;11.052;2023-03-13T16:08:36;96575.19;;;19.65;52.02
14273;BME280;7220;49.450;11.052;2023-03-13T16:12:37;96547.75;;;19.38;52.85
14273;BME280;7220;49.450;11.052;2023-03-13T16:16:38;96545.41;;;19.12;53.81
14273;BME280;7220;49.450;11.052;2023-03-13T16:20:38;96530.72;;;18.83;54.58
14273;BME280;7220;49.450;11.052;2023-03-13T16:24:39;96534.66;;;18.64;54.95
14273;BME280;7220;49.450;11.052;2023-03-13T16:28:39;96520.91;;;18.50;55.59
14273;BME280;7220;49.450;11.052;2023-03-13T16:32:39;96518.13;;;18.27;56.16
14273;BME280;7220;49.450;11.052;2023-03-13T16:36:40;96508.25;;;18.19;56.74
14273;BME280;7220;49.450;11.052;2023-03-13T16:40:40;96492.31;;;18.09;57.45
14273;BME280;7220;49.450;11.052;2023-03-13T16:44:40;96480.41;;;17.79;58.68
14273;BME280;7220;49.450;11.052;2023-03-13T16:48:41;96478.22;;;17.74;58.76
14273;BME280;7220;49.450;11.052;2023-03-13T16:52:41;96481.25;;;17.63;59.45
14273;BME280;7220;49.450;11.052;2023-03-13T16:56:42;96481.25;;;17.55;59.89
14273;BME280;7220;49.450;11.052;2023-03-13T17:00:42;96482.28;;;17.21;61.02
14273;BME280;7220;49.450;11.052;2023-03-13T17:04:45;96472.84;;;17.08;61.70
14273;BME280;7220;49.450;11.052;2023-03-13T17:08:46;96484.69;;;16.89;62.70
14273;BME280;7220;49.450;11.052;2023-03-13T17:12:47;96487.19;;;16.74;63.11
14273;BME280;7220;49.450;11.052;2023-03-13T17:16:47;96466.03;;;16.63;63.49
14273;BME280;7220;49.450;11.052;2023-03-13T17:20:48;96470.91;;;16.67;63.51
14273;BME280;7220;49.450;11.052;2023-03-13T17:24:50;96459.09;;;16.44;65.19
14273;BME280;7220;49.450;11.052;2023-03-13T17:28:52;96460.63;;;16.46;64.96
14273;BME280;7220;49.450;11.052;2023-03-13T17:32:53;96445.47;;;16.29;65.74
14273;BME280;7220;49.450;11.052;2023-03-13T17:36:54;96449.81;;;16.30;66.08
14273;BME280;7220;49.450;11.052;2023-03-13T17:40:54;96437.78;;;16.34;65.27
14273;BME280;7220;49.450;11.052;2023-03-13T17:44:55;96437.59;;;16.27;66.05
14273;BME280;7220;49.450;11.052;2023-03-13T17:48:55;96433.84;;;16.12;67.12
14273;BME280;7220;49.450;11.052;2023-03-13T17:52:55;96424.44;;;16.07;67.18
14273;BME280;7220;49.450;11.052;2023-03-13T17:56:56;96422.84;;;15.88;68.20
14273;BME280;7220;49.450;11.052;2023-03-13T18:00:56;96407.09;;;15.85;68.63
14273;BME280;7220;49.450;11.052;2023-03-13T18:04:56;96414.50;;;15.91;67.46
14273;BME280;7220;49.450;11.052;2023-03-13T18:09:00;96397.84;;;15.80;68.03
14273;BME280;7220;49.450;11.052;2023-03-13T18:13:01;96395.81;;;15.73;68.51
14273;BME280;7220;49.450;11.052;2023-03-13T18:17:09;96383.53;;;15.71;68.95
14273;BME280;7220;49.450;11.052;2023-03-13T18:21:12;96374.75;;;15.52;69.99
14273;BME280;7220;49.450;11.052;2023-03-13T18:25:13;96369.75;;;15.57;69.29
14273;BME280;7220;49.450;11.052;2023-03-13T18:29:19;96357.00;;;15.51;69.91
14273;BME280;7220;49.450;11.052;2023-03-13T18:33:25;96334.56;;;15.44;70.65
14273;BME280;7220;49.450;11.052;2023-03-13T18:37:27;96315.09;;;15.34;70.62
14273;BME280;7220;49.450;11.052;2023-03-13T18:41:29;96310.00;;;15.22;71.72
14273;BME280;7220;49.450;11.052;2023-03-13T18:45:29;96283.78;;;15.26;70.71
14273;BME280;7220;49.450;11.052;2023-03-13T18:49:30;96288.13;;;15.27;71.86
14273;BME280;7220;49.450;11.052;2023-03-13T18:53:30;96273.00;;;15.09;71.04
14273;BME280;7220;49.450;11.052;2023-03-13T18:57:30;96272.81;;;15.11;71.35
14273;BME280;7220;49.450;11.052;2023-03-13T19:01:31;96259.22;;;15.04;72.15
14273;BME280;7220;49.450;11.052;2023-03-13T19:05:31;96248.22;;;15.07;71.27
14273;BME280;7220;49.450;11.052;2023-03-13T19:09:31;96225.66;;;15.10;71.93
14273;BME280;7220;49.450;11.052;2023-03-13T19:13:32;96206.38;;;14.98;73.00
14273;BME280;7220;49.450;11.052;2023-03-13T19:17:37;96196.09;;;14.85;73.03
14273;BME280;7220;49.450;11.052;2023-03-13T19:21:37;96410.91;;;14.86;72.60
14273;BME280;7220;49.450;11.052;2023-03-13T19:25:38;96351.09;;;14.95;73.53
14273;BME280;7220;49.450;11.052;2023-03-13T19:29:38;96357.25;;;14.87;73.46
14273;BME280;7220;49.450;11.052;2023-03-13T19:33:39;96354.25;;;14.90;73.89
14273;BME280;7220;49.450;11.052;2023-03-13T19:37:39;96383.41;;;14.29;78.29
14273;BME280;7220;49.450;11.052;2023-03-13T19:41:39;96388.34;;;13.96;80.88
14273;BME280;7220;49.450;11.052;2023-03-13T19:45:40;96488.69;;;13.61;84.51
14273;BME280;7220;49.450;11.052;2023-03-13T19:49:40;96397.16;;;13.21;88.64
14273;BME280;7220;49.450;11.052;2023-03-13T19:53:40;96359.41;;;13.06;90.70
14273;BME280;7220;49.450;11.052;2023-03-13T19:57:41;96372.75;;;13.06;90.77
14273;BME280;7220;49.450;11.052;2023-03-13T20:01:42;96368.84;;;12.91;92.56
14273;BME280;7220;49.450;11.052;2023-03-13T20:05:42;96339.97;;;12.76;93.23
14273;BME280;7220;49.450;11.052;2023-03-13T20:09:43;96304.19;;;12.69;94.67
14273;BME280;7220;49.450;11.052;2023-03-13T20:13:43;96388.09;;;12.65;95.60
14273;BME280;7220;49.450;11.052;2023-03-13T20:17:43;96517.38;;;12.50;100.00
14273;BME280;7220;49.450;11.052;2023-03-13T20:21:44;96604.81;;;12.35;100.00
14273;BME280;7220;49.450;11.052;2023-03-13T20:25:45;96646.72;;;11.58;100.00
14273;BME280;7220;49.450;11.052;2023-03-13T20:29:46;96660.91;;;11.47;100.00
14273;BME280;7220;49.450;11.052;2023-03-13T20:33:46;96569.53;;;11.36;100.00
14273;BME280;7220;49.450;11.052;2023-03-13T20:37:47;96522.44;;;11.48;100.00
14273;BME280;7220;49.450;11.052;2023-03-13T20:41:49;96524.00;;;11.51;100.00
14273;BME280;7220;49.450;11.052;2023-03-13T20:45:49;96441.13;;;11.56;100.00
14273;BME280;7220;49.450;11.052;2023-03-13T20:49:50;96342.69;;;11.56;100.00
14273;BME280;7220;49.450;11.052;2023-03-13T20:53:50;96341.53;;;11.79;100.00
14273;BME280;7220;49.450;11.052;2023-03-13T20:57:50;96393.34;;;11.75;100.00
14273;BME280;7220;49.450;11.052;2023-03-13T21:01:51;96482.72;;;11.57;100.00
14273;BME280;7220;49.450;11.052;2023-03-13T21:05:51;96492.06;;;11.51;100.00
14273;BME280;7220;49.450;11.052;2023-03-13T21:09:52;96501.53;;;11.44;100.00
14273;BME280;7220;49.450;11.052;2023-03-13T21:13:52;96529.97;;;11.43;100.00
14273;BME280;7220;49.450;11.052;2023-03-13T21:17:52;96547.94;;;11.51;100.00
14273;BME280;7220;49.450;11.052;2023-03-13T21:21:52;96574.72;;;11.38;100.00
14273;BME280;7220;49.450;11.052;2023-03-13T21:25:53;96595.16;;;11.38;100.00
14273;BME280;7220;49.450;11.052;2023-03-13T21:29:54;96565.75;;;11.39;100.00
14273;BME280;7220;49.450;11.052;2023-03-13T21:33:55;96580.53;;;11.32;100.00
14273;BME280;7220;49.450;11.052;2023-03-13T21:37:55;96607.66;;;11.26;100.00
14273;BME280;7220;49.450;11.052;2023-03-13T21:41:55;96631.94;;;11.21;100.00
14273;BME280;7220;49.450;11.052;2023-03-13T21:45:56;96651.81;;;11.17;100.00
14273;BME280;7220;49.450;11.052;2023-03-13T21:49:58;96675.75;;;11.49;100.00
14273;BME280;7220;49.450;11.052;2023-03-13T21:53:59;96674.59;;;11.31;100.00
14273;BME280;7220;49.450;11.052;2023-03-13T21:58:00;96700.22;;;11.43;100.00
14273;BME280;7220;49.450;11.052;2023-03-13T22:02:00;96706.31;;;11.00;100.00
14273;BME280;7220;49.450;11.052;2023-03-13T22:06:00;96646.28;;;10.75;100.00
14273;BME280;7220;49.450;11.052;2023-03-13T22:10:00;96652.34;;;10.65;100.00
14273;BME280;7220;49.450;11.052;2023-03-13T22:14:01;96606.94;;;10.57;100.00
14273;BME280;7220;49.450;11.052;2023-03-13T22:18:01;96511.81;;;10.51;100.00
14273;BME280;7220;49.450;11.052;2023-03-13T22:22:01;96577.97;;;10.43;100.00
14273;BME280;7220;49.450;11.052;2023-03-13T22:26:02;96569.63;;;10.47;100.00
14273;BME280;7220;49.450;11.052;2023-03-13T22:30:03;96599.56;;;10.61;100.00
14273;BME280;7220;49.450;11.052;2023-03-13T22:34:03;96625.88;;;10.52;100.00
14273;BME280;7220;49.450;11.052;2023-03-13T22:38:04;96635.06;;;10.48;100.00
14273;BME280;7220;49.450;11.052;2023-03-13T22:42:05;96658.19;;;10.35;100.00
14273;BME280;7220;49.450;11.052;2023-03-13T22:46:06;96637.88;;;10.11;100.00
14273;BME280;7220;49.450;11.052;2023-03-13T22:50:07;96615.22;;;10.07;100.00